sensor_id;sensor_type;location;lat;lon;timestamp;temperature;humidity
71551;DHT22;59367;48.414;9.872;2023-03-14T00:00:54;12.32661819;71.54541016
71551;DHT22;59367;48.414;9.872;2023-03-14T00:01:58;12.31326675;71.79718018
71551;DHT22;59367;48.414;9.872;2023-03-14T00:03:03;12.2571907;71.98181152
71551;DHT22;59367;48.414;9.872;2023-03-14T00:04:08;12.24383926;72.17712402
71551;DHT22;59367;48.414;9.872;2023-03-14T00:05:13;12.22781754;71.97570801
71551;DHT22;59367;48.414;9.872;2023-03-14T00:06:19;12.21446609;71.74835205
71551;DHT22;59367;48.414;9.872;2023-03-14T00:07:24;12.22781754;71.34094238
71551;DHT22;59367;48.414;9.872;2023-03-14T00:08:29;12.15839005;71.41723633
71551;DHT22;59367;48.414;9.872;2023-03-14T00:09:34;12.11566162;70.93811035
71551;DHT22;59367;48.414;9.872;2023-03-14T00:10:40;12.07026672;71.16546631
71551;DHT22;59367;48.414;9.872;2023-03-14T00:11:45;12.07026672;71.60491943
71551;DHT22;59367;48.414;9.872;2023-03-14T00:12:49;12.01419067;71.64306641
71551;DHT22;59367;48.414;9.872;2023-03-14T00:13:54;12.04356384;71.18988037
71551;DHT22;59367;48.414;9.872;2023-03-14T00:14:59;11.97146606;70.41473389
71551;DHT22;59367;48.414;9.872;2023-03-14T00:16:10;11.93141174;70.79620361
71551;DHT22;59367;48.414;9.872;2023-03-14T00:17:15;11.93141174;70.97320557
71551;DHT22;59367;48.414;9.872;2023-03-14T00:18:20;11.94476318;71.07391357
71551;DHT22;59367;48.414;9.872;2023-03-14T00:19:25;11.95811462;71.27990723
71551;DHT22;59367;48.414;9.872;2023-03-14T00:20:30;11.97146606;71.35314941
71551;DHT22;59367;48.414;9.872;2023-03-14T00:21:34;11.98748779;71.31652832
71551;DHT22;59367;48.414;9.872;2023-03-14T00:22:40;11.94476318;71.08306885
71551;DHT22;59367;48.414;9.872;2023-03-14T00:23:45;11.94476318;71.21124268
71551;DHT22;59367;48.414;9.872;2023-03-14T00:24:50;11.95811462;70.91827393
71551;DHT22;59367;48.414;9.872;2023-03-14T00:25:55;11.95811462;70.8404541
71551;DHT22;59367;48.414;9.872;2023-03-14T00:27:02;11.98748779;70.86791992
71551;DHT22;59367;48.414;9.872;2023-03-14T00:28:07;11.98748779;70.85571289
71551;DHT22;59367;48.414;9.872;2023-03-14T00:29:12;11.98748779;70.89538574
71551;DHT22;59367;48.414;9.872;2023-03-14T00:30:17;12.0302124;70.91369629
71551;DHT22;59367;48.414;9.872;2023-03-14T00:31:22;12.01419067;70.74432373
71551;DHT22;59367;48.414;9.872;2023-03-14T00:32:27;12.01419067;70.9197998
71551;DHT22;59367;48.414;9.872;2023-03-14T00:33:32;12.04356384;70.80841064
71551;DHT22;59367;48.414;9.872;2023-03-14T00:34:37;12.00083923;70.96557617
71551;DHT22;59367;48.414;9.872;2023-03-14T00:35:42;12.00083923;71.1807251
71551;DHT22;59367;48.414;9.872;2023-03-14T00:36:47;11.98748779;70.73974609
71551;DHT22;59367;48.414;9.872;2023-03-14T00:37:51;11.97146606;70.71685791
71551;DHT22;59367;48.414;9.872;2023-03-14T00:38:56;11.95811462;70.51086426
71551;DHT22;59367;48.414;9.872;2023-03-14T00:40:01;11.93141174;70.17211914
71551;DHT22;59367;48.414;9.872;2023-03-14T00:41:08;11.91539001;70.1965332
71551;DHT22;59367;48.414;9.872;2023-03-14T00:42:13;11.91539001;70.00274658
71551;DHT22;59367;48.414;9.872;2023-03-14T00:43:18;11.88868713;70.23162842
71551;DHT22;59367;48.414;9.872;2023-03-14T00:44:23;11.87533569;70.07293701
71551;DHT22;59367;48.414;9.872;2023-03-14T00:45:28;11.88868713;69.92034912
71551;DHT22;59367;48.414;9.872;2023-03-14T00:46:32;11.85931015;69.93408203
71551;DHT22;59367;48.414;9.872;2023-03-14T00:47:37;11.84595871;70.10803223
71551;DHT22;59367;48.414;9.872;2023-03-14T00:48:43;11.84595871;70.2835083
71551;DHT22;59367;48.414;9.872;2023-03-14T00:49:48;11.81658554;70.31860352
71551;DHT22;59367;48.414;9.872;2023-03-14T00:50:53;11.81658554;70.28808594
71551;DHT22;59367;48.414;9.872;2023-03-14T00:51:57;11.78988266;70.21484375
71551;DHT22;59367;48.414;9.872;2023-03-14T00:53:02;11.8032341;70.14923096
71551;DHT22;59367;48.414;9.872;2023-03-14T00:54:07;11.8032341;69.70977783
71551;DHT22;59367;48.414;9.872;2023-03-14T00:55:12;11.77653122;69.88983154
71551;DHT22;59367;48.414;9.872;2023-03-14T00:56:17;11.76050949;70.24688721
71551;DHT22;59367;48.414;9.872;2023-03-14T00:57:21;11.77653122;70.32928467
71551;DHT22;59367;48.414;9.872;2023-03-14T00:58:26;11.74715805;70.03936768
71551;DHT22;59367;48.414;9.872;2023-03-14T00:59:31;11.74715805;70.24536133
71551;DHT22;59367;48.414;9.872;2023-03-14T01:00:36;11.74715805;70.13702393
71551;DHT22;59367;48.414;9.872;2023-03-14T01:01:41;11.77653122;69.65484619
71551;DHT22;59367;48.414;9.872;2023-03-14T01:02:46;11.81658554;69.01855469
71551;DHT22;59367;48.414;9.872;2023-03-14T01:03:53;11.83260727;69.28405762
71551;DHT22;59367;48.414;9.872;2023-03-14T01:04:58;11.83260727;69.33135986
71551;DHT22;59367;48.414;9.872;2023-03-14T01:06:13;11.83260727;69.52819824
71551;DHT22;59367;48.414;9.872;2023-03-14T01:07:18;11.83260727;69.50836182
71551;DHT22;59367;48.414;9.872;2023-03-14T01:08:23;11.85931015;69.48547363
71551;DHT22;59367;48.414;9.872;2023-03-14T01:09:27;11.85931015;69.39544678
71551;DHT22;59367;48.414;9.872;2023-03-14T01:10:32;11.87533569;69.52667236
71551;DHT22;59367;48.414;9.872;2023-03-14T01:11:38;11.85931015;69.60144043
71551;DHT22;59367;48.414;9.872;2023-03-14T01:12:42;11.84595871;69.4229126
71551;DHT22;59367;48.414;9.872;2023-03-14T01:13:47;11.81658554;69.15588379
71551;DHT22;59367;48.414;9.872;2023-03-14T01:14:52;11.81658554;68.94989014
71551;DHT22;59367;48.414;9.872;2023-03-14T01:16:00;11.81658554;69.08416748
71551;DHT22;59367;48.414;9.872;2023-03-14T01:17:04;11.84595871;69.24743652
71551;DHT22;59367;48.414;9.872;2023-03-14T01:18:09;11.8032341;69.50378418
71551;DHT22;59367;48.414;9.872;2023-03-14T01:19:14;11.81658554;69.53582764
71551;DHT22;59367;48.414;9.872;2023-03-14T01:20:19;11.8032341;69.86541748
71551;DHT22;59367;48.414;9.872;2023-03-14T01:21:26;11.78988266;69.67773438
71551;DHT22;59367;48.414;9.872;2023-03-14T01:22:31;11.76050949;69.74182129
71551;DHT22;59367;48.414;9.872;2023-03-14T01:23:36;11.70443344;69.66400146
71551;DHT22;59367;48.414;9.872;2023-03-14T01:24:41;11.73380661;69.871521
71551;DHT22;59367;48.414;9.872;2023-03-14T01:25:45;11.70443344;69.44580078
71551;DHT22;59367;48.414;9.872;2023-03-14T01:26:50;11.66170883;69.82879639
71551;DHT22;59367;48.414;9.872;2023-03-14T01:27:55;11.691082;69.91271973
71551;DHT22;59367;48.414;9.872;2023-03-14T01:29:00;11.66170883;69.40002441
71551;DHT22;59367;48.414;9.872;2023-03-14T01:30:06;11.66170883;69.81964111
71551;DHT22;59367;48.414;9.872;2023-03-14T01:31:12;11.70443344;69.83795166
71551;DHT22;59367;48.414;9.872;2023-03-14T01:32:17;11.70443344;69.85778809
71551;DHT22;59367;48.414;9.872;2023-03-14T01:33:22;11.67773056;70.03631592
71551;DHT22;59367;48.414;9.872;2023-03-14T01:34:26;11.64835739;69.91577148
71551;DHT22;59367;48.414;9.872;2023-03-14T01:35:31;11.64835739;69.91577148
71551;DHT22;59367;48.414;9.872;2023-03-14T01:36:36;11.66170883;69.88830566
71551;DHT22;59367;48.414;9.872;2023-03-14T01:37:40;11.66170883;69.76165771
71551;DHT22;59367;48.414;9.872;2023-03-14T01:38:45;11.64835739;69.78759766
71551;DHT22;59367;48.414;9.872;2023-03-14T01:39:50;11.67773056;69.92034912
71551;DHT22;59367;48.414;9.872;2023-03-14T01:40:55;11.66170883;69.90814209
71551;DHT22;59367;48.414;9.872;2023-03-14T01:42:02;11.63500595;69.8928833
71551;DHT22;59367;48.414;9.872;2023-03-14T01:43:16;11.64835739;69.86541748
71551;DHT22;59367;48.414;9.872;2023-03-14T01:44:22;11.66170883;69.81048584
71551;DHT22;59367;48.414;9.872;2023-03-14T01:46:45;11.67773056;69.79370117
71551;DHT22;59367;48.414;9.872;2023-03-14T01:47:50;11.70443344;69.64263916
71551;DHT22;59367;48.414;9.872;2023-03-14T01:48:59;11.72045517;69.80133057
71551;DHT22;59367;48.414;9.872;2023-03-14T01:50:09;11.691082;69.77844238
71551;DHT22;59367;48.414;9.872;2023-03-14T01:51:20;11.66170883;69.85778809
71551;DHT22;59367;48.414;9.872;2023-03-14T01:52:30;11.66170883;69.54650879
71551;DHT22;59367;48.414;9.872;2023-03-14T01:53:37;11.70443344;69.29016113
71551;DHT22;59367;48.414;9.872;2023-03-14T01:54:45;11.72045517;69.34356689
71551;DHT22;59367;48.414;9.872;2023-03-14T01:55:52;11.70443344;69.42596436
71551;DHT22;59367;48.414;9.872;2023-03-14T01:57:00;11.691082;69.3069458
71551;DHT22;59367;48.414;9.872;2023-03-14T01:58:06;11.66170883;69.50836182
71551;DHT22;59367;48.414;9.872;2023-03-14T01:59:13;11.66170883;69.41833496
71551;DHT22;59367;48.414;9.872;2023-03-14T02:00:20;11.66170883;69.25354004
71551;DHT22;59367;48.414;9.872;2023-03-14T02:01:26;11.691082;69.28863525
71551;DHT22;59367;48.414;9.872;2023-03-14T02:02:33;11.691082;69.14215088
71551;DHT22;59367;48.414;9.872;2023-03-14T02:03:43;11.64835739;68.94989014
71551;DHT22;59367;48.414;9.872;2023-03-14T02:04:49;11.64835739;68.98803711
71551;DHT22;59367;48.414;9.872;2023-03-14T02:05:56;11.60562897;69.12536621
71551;DHT22;59367;48.414;9.872;2023-03-14T02:07:08;11.60562897;69.12536621
71551;DHT22;59367;48.414;9.872;2023-03-14T02:08:16;11.59227753;69.39849854
71551;DHT22;59367;48.414;9.872;2023-03-14T02:09:22;11.56557465;68.9239502
71551;DHT22;59367;48.414;9.872;2023-03-14T02:10:30;11.54955292;69.39849854
71551;DHT22;59367;48.414;9.872;2023-03-14T02:11:36;11.52285004;69.59075928
71551;DHT22;59367;48.414;9.872;2023-03-14T02:12:41;11.49347687;69.51446533
71551;DHT22;59367;48.414;9.872;2023-03-14T02:13:47;11.49347687;69.46716309
71551;DHT22;59367;48.414;9.872;2023-03-14T02:14:53;11.48012543;69.3572998
71551;DHT22;59367;48.414;9.872;2023-03-14T02:15:57;11.48012543;69.68841553
71551;DHT22;59367;48.414;9.872;2023-03-14T02:17:04;11.50682831;69.56787109
71551;DHT22;59367;48.414;9.872;2023-03-14T02:18:09;11.52285004;69.32678223
71551;DHT22;59367;48.414;9.872;2023-03-14T02:19:16;11.50682831;69.49920654
71551;DHT22;59367;48.414;9.872;2023-03-14T02:20:30;11.52285004;69.54193115
71551;DHT22;59367;48.414;9.872;2023-03-14T02:21:47;11.52285004;69.52209473
71551;DHT22;59367;48.414;9.872;2023-03-14T02:25:48;11.49347687;69.25354004
71551;DHT22;59367;48.414;9.872;2023-03-14T02:27:07;11.48012543;69.12384033
71551;DHT22;59367;48.414;9.872;2023-03-14T02:28:13;11.46677399;69.37561035
71551;DHT22;59367;48.414;9.872;2023-03-14T02:29:19;11.45075226;69.22454834
71551;DHT22;59367;48.414;9.872;2023-03-14T02:30:33;11.42404938;69.27947998
71551;DHT22;59367;48.414;9.872;2023-03-14T02:40:30;11.39467621;69.22607422
71551;DHT22;59367;48.414;9.872;2023-03-14T02:41:35;11.42404938;69.49462891
71551;DHT22;59367;48.414;9.872;2023-03-14T02:42:41;11.38132477;69.34967041
71551;DHT22;59367;48.414;9.872;2023-03-14T02:43:46;11.40802765;69.63806152
71551;DHT22;59367;48.414;9.872;2023-03-14T02:44:59;11.40802765;69.45037842
71551;DHT22;59367;48.414;9.872;2023-03-14T02:46:07;11.40802765;69.3939209
71551;DHT22;59367;48.414;9.872;2023-03-14T02:47:13;11.38132477;69.51751709
71551;DHT22;59367;48.414;9.872;2023-03-14T02:48:22;11.39467621;69.50836182
71551;DHT22;59367;48.414;9.872;2023-03-14T02:49:31;11.39467621;69.73266602
71551;DHT22;59367;48.414;9.872;2023-03-14T02:50:37;11.39467621;69.57702637
71551;DHT22;59367;48.414;9.872;2023-03-14T02:51:44;11.36796951;69.50378418
71551;DHT22;59367;48.414;9.872;2023-03-14T02:52:50;11.38132477;69.66094971
71551;DHT22;59367;48.414;9.872;2023-03-14T02:53:55;11.39467621;69.83947754
71551;DHT22;59367;48.414;9.872;2023-03-14T02:55:01;11.38132477;69.82879639
71551;DHT22;59367;48.414;9.872;2023-03-14T02:56:07;11.36796951;69.73724365
71551;DHT22;59367;48.414;9.872;2023-03-14T02:57:12;11.36796951;69.98138428
71551;DHT22;59367;48.414;9.872;2023-03-14T02:58:19;11.33859634;69.81048584
71551;DHT22;59367;48.414;9.872;2023-03-14T02:59:24;11.35194778;69.99816895
71551;DHT22;59367;48.414;9.872;2023-03-14T03:00:29;11.35194778;70.1171875
71551;DHT22;59367;48.414;9.872;2023-03-14T03:01:35;11.35194778;69.88983154
71551;DHT22;59367;48.414;9.872;2023-03-14T03:02:40;11.33859634;70.20111084
71551;DHT22;59367;48.414;9.872;2023-03-14T03:03:45;11.33859634;70.04394531
71551;DHT22;59367;48.414;9.872;2023-03-14T03:04:50;11.33859634;70.03479004
71551;DHT22;59367;48.414;9.872;2023-03-14T03:05:57;11.36796951;69.93103027
71551;DHT22;59367;48.414;9.872;2023-03-14T03:07:02;11.35194778;69.99816895
71551;DHT22;59367;48.414;9.872;2023-03-14T03:08:08;11.38132477;69.972229
71551;DHT22;59367;48.414;9.872;2023-03-14T03:09:13;11.38132477;69.91577148
71551;DHT22;59367;48.414;9.872;2023-03-14T03:10:19;11.42404938;69.96307373
71551;DHT22;59367;48.414;9.872;2023-03-14T03:11:25;11.38132477;69.90661621
71551;DHT22;59367;48.414;9.872;2023-03-14T03:12:30;11.42404938;69.77539063
71551;DHT22;59367;48.414;9.872;2023-03-14T03:13:36;11.39467621;69.81048584
71551;DHT22;59367;48.414;9.872;2023-03-14T03:14:42;11.36796951;69.99053955
71551;DHT22;59367;48.414;9.872;2023-03-14T03:15:48;11.38132477;69.92645264
71551;DHT22;59367;48.414;9.872;2023-03-14T03:16:54;11.40802765;69.91119385
71551;DHT22;59367;48.414;9.872;2023-03-14T03:18:00;11.39467621;69.86999512
71551;DHT22;59367;48.414;9.872;2023-03-14T03:19:05;11.45075226;69.81201172
71551;DHT22;59367;48.414;9.872;2023-03-14T03:20:11;11.43740082;69.88830566
71551;DHT22;59367;48.414;9.872;2023-03-14T03:21:17;11.46677399;69.88372803
71551;DHT22;59367;48.414;9.872;2023-03-14T03:22:22;11.49347687;69.76013184
71551;DHT22;59367;48.414;9.872;2023-03-14T03:23:27;11.46677399;69.6685791
71551;DHT22;59367;48.414;9.872;2023-03-14T03:24:33;11.49347687;69.44885254
71551;DHT22;59367;48.414;9.872;2023-03-14T03:25:38;11.48012543;69.56329346
71551;DHT22;59367;48.414;9.872;2023-03-14T03:26:43;11.49347687;69.42749023
71551;DHT22;59367;48.414;9.872;2023-03-14T03:27:48;11.46677399;69.32678223
71551;DHT22;59367;48.414;9.872;2023-03-14T03:28:54;11.48012543;69.43511963
71551;DHT22;59367;48.414;9.872;2023-03-14T03:30:00;11.43740082;69.24285889
71551;DHT22;59367;48.414;9.872;2023-03-14T03:31:11;11.46677399;69.27642822
71551;DHT22;59367;48.414;9.872;2023-03-14T03:32:16;11.43740082;69.43664551
71551;DHT22;59367;48.414;9.872;2023-03-14T03:33:22;11.45075226;69.60601807
71551;DHT22;59367;48.414;9.872;2023-03-14T03:34:27;11.40802765;69.54040527
71551;DHT22;59367;48.414;9.872;2023-03-14T03:35:33;11.43740082;69.34967041
71551;DHT22;59367;48.414;9.872;2023-03-14T03:36:38;11.45075226;69.40307617
71551;DHT22;59367;48.414;9.872;2023-03-14T03:37:44;11.45075226;69.37255859
71551;DHT22;59367;48.414;9.872;2023-03-14T03:38:49;11.42404938;69.40765381
71551;DHT22;59367;48.414;9.872;2023-03-14T03:39:54;11.42404938;69.25201416
71551;DHT22;59367;48.414;9.872;2023-03-14T03:41:01;11.40802765;69.45037842
71551;DHT22;59367;48.414;9.872;2023-03-14T03:42:06;11.40802765;69.41223145
71551;DHT22;59367;48.414;9.872;2023-03-14T03:43:12;11.38132477;69.47784424
71551;DHT22;59367;48.414;9.872;2023-03-14T03:44:17;11.39467621;69.57702637
71551;DHT22;59367;48.414;9.872;2023-03-14T03:45:23;11.38132477;69.38934326
71551;DHT22;59367;48.414;9.872;2023-03-14T03:46:28;11.39467621;69.50836182
71551;DHT22;59367;48.414;9.872;2023-03-14T03:47:34;11.38132477;69.57397461
71551;DHT22;59367;48.414;9.872;2023-03-14T03:48:40;11.42404938;69.56329346
71551;DHT22;59367;48.414;9.872;2023-03-14T03:49:45;11.39467621;69.39086914
71551;DHT22;59367;48.414;9.872;2023-03-14T03:50:50;11.39467621;69.70214844
71551;DHT22;59367;48.414;9.872;2023-03-14T03:51:56;11.40802765;69.54040527
71551;DHT22;59367;48.414;9.872;2023-03-14T03:53:01;11.40802765;69.6472168
71551;DHT22;59367;48.414;9.872;2023-03-14T03:54:07;11.38132477;69.55566406
71551;DHT22;59367;48.414;9.872;2023-03-14T03:55:12;11.38132477;69.72961426
71551;DHT22;59367;48.414;9.872;2023-03-14T03:56:18;11.38132477;69.56481934
71551;DHT22;59367;48.414;9.872;2023-03-14T03:57:23;11.40802765;69.58770752
71551;DHT22;59367;48.414;9.872;2023-03-14T03:58:28;11.39467621;69.79217529
71551;DHT22;59367;48.414;9.872;2023-03-14T03:59:34;11.38132477;69.87609863
71551;DHT22;59367;48.414;9.872;2023-03-14T04:00:39;11.39467621;69.81964111
71551;DHT22;59367;48.414;9.872;2023-03-14T04:01:44;11.39467621;69.76165771
71551;DHT22;59367;48.414;9.872;2023-03-14T04:02:50;11.42404938;69.63195801
71551;DHT22;59367;48.414;9.872;2023-03-14T04:03:55;11.45075226;69.56787109
71551;DHT22;59367;48.414;9.872;2023-03-14T04:05:00;11.48012543;69.43511963
71551;DHT22;59367;48.414;9.872;2023-03-14T04:06:08;11.49347687;69.34967041
71551;DHT22;59367;48.414;9.872;2023-03-14T04:07:14;11.46677399;69.34509277
71551;DHT22;59367;48.414;9.872;2023-03-14T04:08:19;11.46677399;69.21081543
71551;DHT22;59367;48.414;9.872;2023-03-14T04:09:24;11.48012543;69.21234131
71551;DHT22;59367;48.414;9.872;2023-03-14T04:10:30;11.49347687;69.10552979
71551;DHT22;59367;48.414;9.872;2023-03-14T04:11:35;11.46677399;69.18945313
71551;DHT22;59367;48.414;9.872;2023-03-14T04:12:40;11.48012543;69.23065186
71551;DHT22;59367;48.414;9.872;2023-03-14T04:13:45;11.43740082;69.11621094
71551;DHT22;59367;48.414;9.872;2023-03-14T04:14:51;11.43740082;69.22149658
71551;DHT22;59367;48.414;9.872;2023-03-14T04:15:56;11.45075226;69.21539307
71551;DHT22;59367;48.414;9.872;2023-03-14T04:17:02;11.39467621;69.07958984
71551;DHT22;59367;48.414;9.872;2023-03-14T04:18:07;11.36796951;69.0826416
71551;DHT22;59367;48.414;9.872;2023-03-14T04:19:12;11.38132477;69.32067871
71551;DHT22;59367;48.414;9.872;2023-03-14T04:20:18;11.36796951;69.37713623
71551;DHT22;59367;48.414;9.872;2023-03-14T04:21:23;11.36796951;69.25811768
71551;DHT22;59367;48.414;9.872;2023-03-14T04:22:29;11.38132477;69.20318604
71551;DHT22;59367;48.414;9.872;2023-03-14T04:23:34;11.38132477;69.05670166
71551;DHT22;59367;48.414;9.872;2023-03-14T04:24:39;11.36796951;69.03686523
71551;DHT22;59367;48.414;9.872;2023-03-14T04:25:44;11.33859634;69.02923584
71551;DHT22;59367;48.414;9.872;2023-03-14T04:26:50;11.33859634;68.80493164
71551;DHT22;59367;48.414;9.872;2023-03-14T04:27:55;11.29320145;68.86749268
71551;DHT22;59367;48.414;9.872;2023-03-14T04:29:00;11.29320145;68.8583374
71551;DHT22;59367;48.414;9.872;2023-03-14T04:30:07;11.29320145;68.66149902
71551;DHT22;59367;48.414;9.872;2023-03-14T04:31:16;11.29320145;68.56536865
71551;DHT22;59367;48.414;9.872;2023-03-14T04:32:22;11.30922318;68.68438721
71551;DHT22;59367;48.414;9.872;2023-03-14T04:33:27;11.32257462;68.40209961
71551;DHT22;59367;48.414;9.872;2023-03-14T04:34:32;11.30922318;68.41125488
71551;DHT22;59367;48.414;9.872;2023-03-14T04:35:39;11.30922318;68.47839355
71551;DHT22;59367;48.414;9.872;2023-03-14T04:36:44;11.26649857;68.09082031
71551;DHT22;59367;48.414;9.872;2023-03-14T04:37:50;11.26649857;68.51959229
71551;DHT22;59367;48.414;9.872;2023-03-14T04:38:55;11.22377396;67.9977417
71551;DHT22;59367;48.414;9.872;2023-03-14T04:40:00;11.21042252;68.19000244
71551;DHT22;59367;48.414;9.872;2023-03-14T04:41:06;11.21042252;68.20831299
71551;DHT22;59367;48.414;9.872;2023-03-14T04:42:11;11.22377396;68.12286377
71551;DHT22;59367;48.414;9.872;2023-03-14T04:43:17;11.21042252;68.02215576
71551;DHT22;59367;48.414;9.872;2023-03-14T04:44:22;11.22377396;68.00689697
71551;DHT22;59367;48.414;9.872;2023-03-14T04:45:27;11.22377396;67.9977417
71551;DHT22;59367;48.414;9.872;2023-03-14T04:46:33;11.22377396;67.74291992
71551;DHT22;59367;48.414;9.872;2023-03-14T04:47:38;11.19440079;67.95196533
71551;DHT22;59367;48.414;9.872;2023-03-14T04:48:44;11.18104935;67.96112061
71551;DHT22;59367;48.414;9.872;2023-03-14T04:49:49;11.19440079;67.67883301
71551;DHT22;59367;48.414;9.872;2023-03-14T04:50:54;11.18104935;67.51251221
71551;DHT22;59367;48.414;9.872;2023-03-14T04:51:59;11.18104935;67.19818115
71551;DHT22;59367;48.414;9.872;2023-03-14T04:53:05;11.12496948;67.56896973
71551;DHT22;59367;48.414;9.872;2023-03-14T04:54:10;11.12496948;67.59033203
71551;DHT22;59367;48.414;9.872;2023-03-14T04:55:16;11.09559631;67.88482666
71551;DHT22;59367;48.414;9.872;2023-03-14T04:56:21;11.12496948;67.69561768
71551;DHT22;59367;48.414;9.872;2023-03-14T04:57:26;11.09559631;67.59185791
71551;DHT22;59367;48.414;9.872;2023-03-14T04:58:32;11.11161804;67.34313965
71551;DHT22;59367;48.414;9.872;2023-03-14T04:59:37;11.09559631;67.45758057
71551;DHT22;59367;48.414;9.872;2023-03-14T05:00:42;11.02616882;67.47589111
71551;DHT22;59367;48.414;9.872;2023-03-14T05:01:47;11.03952026;67.54455566
71551;DHT22;59367;48.414;9.872;2023-03-14T05:02:53;11.01281738;67.55981445
71551;DHT22;59367;48.414;9.872;2023-03-14T05:03:58;10.99946594;67.65441895
71551;DHT22;59367;48.414;9.872;2023-03-14T05:05:03;11.02616882;67.48504639
71551;DHT22;59367;48.414;9.872;2023-03-14T05:06:10;11.02616882;67.68798828
71551;DHT22;59367;48.414;9.872;2023-03-14T05:07:15;11.03952026;67.69104004
71551;DHT22;59367;48.414;9.872;2023-03-14T05:08:20;10.99946594;67.33398438
71551;DHT22;59367;48.414;9.872;2023-03-14T05:09:26;10.97009277;67.50335693
71551;DHT22;59367;48.414;9.872;2023-03-14T05:10:31;10.9407196;67.54608154
71551;DHT22;59367;48.414;9.872;2023-03-14T05:11:36;10.92736816;67.63305664
71551;DHT22;59367;48.414;9.872;2023-03-14T05:12:41;10.9407196;67.6361084
71551;DHT22;59367;48.414;9.872;2023-03-14T05:13:47;10.92736816;67.58270264
71551;DHT22;59367;48.414;9.872;2023-03-14T05:14:52;10.9407196;67.74139404
71551;DHT22;59367;48.414;9.872;2023-03-14T05:16:06;10.9407196;67.81005859
71551;DHT22;59367;48.414;9.872;2023-03-14T05:17:12;10.9407196;67.6361084
71551;DHT22;59367;48.414;9.872;2023-03-14T05:18:19;10.92736816;67.57354736
71551;DHT22;59367;48.414;9.872;2023-03-14T05:19:24;10.95674133;67.72460938
71551;DHT22;59367;48.414;9.872;2023-03-14T05:20:30;10.97009277;67.51403809
71551;DHT22;59367;48.414;9.872;2023-03-14T05:21:35;10.9407196;67.46826172
71551;DHT22;59367;48.414;9.872;2023-03-14T05:22:40;10.97009277;67.48504639
71551;DHT22;59367;48.414;9.872;2023-03-14T05:23:46;10.99946594;67.53692627
71551;DHT22;59367;48.414;9.872;2023-03-14T05:24:51;10.97009277;67.16156006
71551;DHT22;59367;48.414;9.872;2023-03-14T05:25:56;11.01281738;67.19818115
71551;DHT22;59367;48.414;9.872;2023-03-14T05:27:02;11.01281738;67.4041748
71551;DHT22;59367;48.414;9.872;2023-03-14T05:28:07;10.97009277;67.36602783
71551;DHT22;59367;48.414;9.872;2023-03-14T05:29:12;10.98344421;67.52624512
71551;DHT22;59367;48.414;9.872;2023-03-14T05:30:18;10.98344421;67.13409424
71551;DHT22;59367;48.414;9.872;2023-03-14T05:31:23;10.99946594;67.26531982
71551;DHT22;59367;48.414;9.872;2023-03-14T05:32:28;10.95674133;67.11120605
71551;DHT22;59367;48.414;9.872;2023-03-14T05:33:34;10.95674133;67.1295166
71551;DHT22;59367;48.414;9.872;2023-03-14T05:34:39;10.97009277;67.13256836
71551;DHT22;59367;48.414;9.872;2023-03-14T05:35:44;11.01281738;67.16918945
71551;DHT22;59367;48.414;9.872;2023-03-14T05:36:50;11.01281738;67.03338623
71551;DHT22;59367;48.414;9.872;2023-03-14T05:37:55;11.02616882;66.88995361
71551;DHT22;59367;48.414;9.872;2023-03-14T05:39:00;11.02616882;67.17071533
71551;DHT22;59367;48.414;9.872;2023-03-14T05:40:06;10.97009277;67.03643799
71551;DHT22;59367;48.414;9.872;2023-03-14T05:41:12;10.95674133;67.05169678
71551;DHT22;59367;48.414;9.872;2023-03-14T05:42:17;10.95674133;66.92657471
71551;DHT22;59367;48.414;9.872;2023-03-14T05:43:22;10.9407196;67.12799072
71551;DHT22;59367;48.414;9.872;2023-03-14T05:44:27;10.9407196;67.2744751
71551;DHT22;59367;48.414;9.872;2023-03-14T05:45:33;10.97009277;67.19207764
71551;DHT22;59367;48.414;9.872;2023-03-14T05:46:39;10.9407196;66.9631958
71551;DHT22;59367;48.414;9.872;2023-03-14T05:47:44;10.9407196;66.95404053
71551;DHT22;59367;48.414;9.872;2023-03-14T05:48:49;10.92736816;67.00897217
71551;DHT22;59367;48.414;9.872;2023-03-14T05:49:54;10.95674133;67.18902588
71551;DHT22;59367;48.414;9.872;2023-03-14T05:51:00;10.9407196;66.94488525
71551;DHT22;59367;48.414;9.872;2023-03-14T05:52:05;10.99946594;66.75872803
71551;DHT22;59367;48.414;9.872;2023-03-14T05:53:10;10.97009277;66.93725586
71551;DHT22;59367;48.414;9.872;2023-03-14T05:54:15;10.97009277;66.82128906
71551;DHT22;59367;48.414;9.872;2023-03-14T05:55:21;11.01281738;66.70227051
71551;DHT22;59367;48.414;9.872;2023-03-14T05:56:26;11.02616882;66.61682129
71551;DHT22;59367;48.414;9.872;2023-03-14T05:57:31;11.01281738;66.52832031
71551;DHT22;59367;48.414;9.872;2023-03-14T05:58:37;10.99946594;66.61224365
71551;DHT22;59367;48.414;9.872;2023-03-14T05:59:42;10.99946594;66.83654785
71551;DHT22;59367;48.414;9.872;2023-03-14T06:00:47;10.97009277;66.70379639
71551;DHT22;59367;48.414;9.872;2023-03-14T06:01:53;10.95674133;66.54663086
71551;DHT22;59367;48.414;9.872;2023-03-14T06:02:58;10.9407196;66.62139893